Time;durP1;ratioP1;P1;durP2;ratioP2;P2;SDS_P1;SDS_P2;PMS_P1;PMS_P2;Temp;Humidity;BMP_temperature;BMP_pressure;BME280_temperature;BME280_humidity;BME280_pressure;Samples;Min_cycle;Max_cycle;Signal;HPM_P1;HPM_P2
2022/11/03 00:04:40;;;;;;;7.68;5.97;;;;;;;4.90;100.00;100611.41;10538678;28;20068;-72
2022/11/03 00:09:42;;;;;;;8.27;6.43;;;;;;;4.93;100.00;100616.63;10537148;28;20105;-72
2022/11/03 00:14:43;;;;;;;8.50;5.97;;;;;;;4.79;100.00;100614.00;10539537;28;20490;-72
2022/11/03 00:19:45;;;;;;;6.97;5.38;;;;;;;4.66;100.00;100604.44;10537135;28;20048;-72
2022/11/03 00:24:46;;;;;;;8.00;5.82;;;;;;;4.72;100.00;100594.03;10538354;28;20036;-72
2022/11/03 00:29:48;;;;;;;8.55;5.88;;;;;;;5.00;100.00;100603.59;10538089;28;20123;-72
2022/11/03 00:34:49;;;;;;;7.88;5.00;;;;;;;4.69;100.00;100596.63;10545331;28;20079;-72
2022/11/03 00:39:51;;;;;;;7.18;4.90;;;;;;;4.41;100.00;100585.31;10545897;28;20465;-72
2022/11/03 00:44:52;;;;;;;7.32;5.00;;;;;;;4.30;100.00;100575.75;10546194;28;20101;-73
2022/11/03 00:49:54;;;;;;;5.68;4.63;;;;;;;4.20;100.00;100570.50;10545235;28;20479;-73
2022/11/03 00:54:55;;;;;;;5.82;4.20;;;;;;;4.16;100.00;100558.34;10545761;28;20153;-72
2022/11/03 00:59:57;;;;;;;8.18;4.32;;;;;;;4.24;100.00;100564.44;10546541;28;20135;-72
2022/11/03 01:10:18;;;;;;;7.78;4.50;;;;;;;4.53;100.00;100570.56;10544607;28;20124;-72
2022/11/03 01:15:20;;;;;;;7.82;4.68;;;;;;;4.39;100.00;100577.50;10544975;28;20040;-72
2022/11/03 01:20:21;;;;;;;8.85;4.45;;;;;;;4.21;100.00;100573.13;10543949;28;20577;-73
2022/11/03 01:25:24;;;;;;;7.25;4.40;;;;;;;4.30;100.00;100569.69;10543789;28;20040;-73
2022/11/03 01:30:25;;;;;;;10.57;4.55;;;;;;;4.05;100.00;100566.13;10543746;28;20059;-72
2022/11/03 01:35:27;;;;;;;7.53;4.13;;;;;;;3.99;100.00;100558.31;10543764;28;20050;-73
2022/11/03 01:40:29;;;;;;;9.70;3.67;;;;;;;4.24;100.00;100554.91;10543743;28;20071;-72
2022/11/03 01:45:31;;;;;;;7.25;4.38;;;;;;;4.11;100.00;100555.72;10542113;28;20044;-72
2022/11/03 01:50:32;;;;;;;7.63;3.88;;;;;;;4.22;100.00;100558.38;10541652;28;20048;-72
2022/11/03 01:55:39;;;;;;;6.00;3.15;;;;;;;3.94;100.00;100553.09;10542685;28;20063;-73
2022/11/03 02:00:44;;;;;;;7.90;3.88;;;;;;;4.17;100.00;100547.09;10543516;28;20466;-72
2022/11/03 02:05:48;;;;;;;7.78;3.50;;;;;;;4.11;100.00;100534.91;10543734;28;20470;-72
2022/11/03 02:10:50;;;;;;;5.93;2.85;;;;;;;4.19;100.00;100524.53;10543329;28;20078;-73
2022/11/03 02:15:57;;;;;;;5.22;3.00;;;;;;;4.29;100.00;100526.28;10542658;28;20046;-72
2022/11/03 02:21:13;;;;;;;10.33;3.00;;;;;;;4.39;100.00;100516.78;10541816;28;20077;-73
2022/11/03 02:26:15;;;;;;;5.63;2.67;;;;;;;4.13;100.00;100519.31;10542280;28;20032;-72
2022/11/03 02:31:40;;;;;;;6.68;3.08;;;;;;;3.85;100.00;100506.25;10523406;28;20068;-73
2022/11/03 02:36:49;;;;;;;3.75;2.40;;;;;;;3.75;100.00;100504.47;10543730;28;20044;-73
2022/11/03 02:41:55;;;;;;;5.82;3.22;;;;;;;3.61;100.00;100503.56;10545152;28;20368;-73
2022/11/03 02:47:00;;;;;;;14.15;3.05;;;;;;;3.73;100.00;100481.06;10541780;28;20067;-73
2022/11/03 02:52:03;;;;;;;5.38;2.92;;;;;;;4.00;100.00;100472.47;10541737;28;20516;-73
2022/11/03 02:57:17;;;;;;;4.63;2.50;;;;;;;3.82;100.00;100466.38;10541136;28;20145;-73
2022/11/03 03:02:27;;;;;;;7.55;3.00;;;;;;;3.69;100.00;100465.47;10540658;28;20032;-73
2022/11/03 03:07:36;;;;;;;6.80;2.80;;;;;;;3.80;100.00;100443.81;10541753;28;20126;-73
2022/11/03 03:12:44;;;;;;;6.25;2.83;;;;;;;3.75;100.00;100439.47;10539826;28;20036;-73
2022/11/03 03:18:08;;;;;;;5.75;2.65;;;;;;;3.61;100.00;100443.75;10538378;28;20126;-73
2022/11/03 03:23:17;;;;;;;6.25;2.42;;;;;;;3.63;100.00;100442.91;10539888;28;20070;-73
2022/11/03 03:28:31;;;;;;;6.50;2.72;;;;;;;3.60;100.00;100440.31;10539441;28;20085;-73
2022/11/03 03:33:34;;;;;;;5.10;3.00;;;;;;;3.43;100.00;100427.25;10540127;28;20037;-73
2022/11/03 03:38:43;;;;;;;5.25;2.72;;;;;;;3.43;100.00;100426.38;10539028;28;20105;-73
2022/11/03 03:43:45;;;;;;;7.72;2.70;;;;;;;3.28;100.00;100427.19;10540181;28;20044;-73
2022/11/03 03:48:47;;;;;;;4.47;2.60;;;;;;;3.10;100.00;100412.41;10538863;28;20076;-73
2022/11/03 03:53:53;;;;;;;9.27;2.95;;;;;;;3.04;100.00;100397.63;10539844;28;20040;-73
2022/11/03 03:58:55;;;;;;;10.13;2.78;;;;;;;3.19;100.00;100394.25;10539015;28;20048;-73
2022/11/03 04:03:57;;;;;;;5.80;2.58;;;;;;;3.23;100.00;100382.13;10538436;28;20093;-73
2022/11/03 04:08:58;;;;;;;8.63;3.10;;;;;;;3.14;100.00;100375.16;10542182;28;20139;-73
2022/11/03 04:24:40;;;;;;;7.05;3.22;;;;;;;2.94;100.00;100372.50;10546263;28;20040;-73
2022/11/03 04:29:41;;;;;;;6.55;3.35;;;;;;;3.33;100.00;100357.94;10544826;28;20052;-73
2022/11/03 04:34:47;;;;;;;7.18;2.83;;;;;;;3.00;100.00;100351.72;10546278;28;20071;-73
2022/11/03 04:39:48;;;;;;;4.85;2.78;;;;;;;2.67;100.00;100344.66;10545351;28;20044;-73
2022/11/03 04:44:50;;;;;;;5.68;3.28;;;;;;;2.63;100.00;100348.13;10546009;28;20497;-74
2022/11/03 04:49:52;;;;;;;4.28;3.38;;;;;;;2.85;100.00;100346.50;10527004;28;20052;-73
2022/11/03 04:54:54;;;;;;;5.43;3.10;;;;;;;3.14;100.00;100337.94;10546178;28;20036;-73
2022/11/03 04:59:55;;;;;;;4.63;3.30;;;;;;;2.83;100.00;100345.59;10544150;28;20044;-73
2022/11/03 05:04:57;;;;;;;6.60;3.70;;;;;;;2.71;100.00;100338.63;10544484;28;20051;-74
2022/11/03 05:09:59;;;;;;;6.30;3.88;;;;;;;2.67;100.00;100341.22;10544732;28;20040;-73
2022/11/03 05:15:10;;;;;;;6.72;3.75;;;;;;;2.60;100.00;100339.44;10543894;28;20390;-73
2022/11/03 05:20:35;;;;;;;6.75;4.47;;;;;;;2.57;100.00;100332.50;10544757;28;20052;-74
2022/11/03 05:25:45;;;;;;;6.63;3.97;;;;;;;2.75;100.00;100326.56;10541995;28;20048;-70
2022/11/03 05:30:48;;;;;;;6.25;3.70;;;;;;;2.56;100.00;100322.09;10544130;28;20086;-70
2022/11/03 05:35:50;;;;;;;7.50;4.15;;;;;;;2.75;100.00;100311.84;10543099;28;20048;-71
2022/11/03 05:40:53;;;;;;;9.77;3.92;;;;;;;2.85;100.00;100314.47;10543556;28;20094;-71
2022/11/03 05:45:57;;;;;;;7.75;4.57;;;;;;;2.95;100.00;100300.66;10543240;28;20109;-70
2022/11/03 05:51:09;;;;;;;9.05;4.50;;;;;;;2.88;100.00;100304.06;10541305;28;20048;-70
2022/11/03 05:56:17;;;;;;;7.93;4.35;;;;;;;3.09;100.00;100298.94;10541921;28;20093;-70
2022/11/03 06:01:31;;;;;;;8.93;5.38;;;;;;;2.97;100.00;100307.59;10542727;28;20047;-70
2022/11/03 06:06:37;;;;;;;6.65;4.75;;;;;;;2.95;100.00;100304.09;10541658;28;20040;-70
2022/11/03 06:11:39;;;;;;;12.07;6.28;;;;;;;2.89;100.00;100306.69;10542149;28;20498;-70
2022/11/03 06:16:43;;;;;;;13.02;6.40;;;;;;;2.83;100.00;100303.19;10541370;28;20059;-70
2022/11/03 06:21:47;;;;;;;11.55;6.43;;;;;;;2.95;100.00;100306.72;10541584;28;20052;-70
2022/11/03 06:26:50;;;;;;;13.95;7.07;;;;;;;2.99;100.00;100295.47;10540915;28;20040;-70
2022/11/03 06:31:56;;;;;;;13.13;7.28;;;;;;;3.04;100.00;100295.47;10539946;28;20044;-70
2022/11/03 06:37:04;;;;;;;11.15;7.55;;;;;;;3.41;100.00;100301.66;10539583;28;20443;-70
2022/11/03 06:42:14;;;;;;;10.02;8.18;;;;;;;3.69;100.00;100297.34;10540758;28;20039;-69
2022/11/03 06:47:24;;;;;;;11.60;7.00;;;;;;;3.81;100.00;100291.28;10539558;28;20055;-69
2022/11/03 06:52:36;;;;;;;13.07;7.43;;;;;;;3.94;100.00;100286.91;10540317;28;20076;-69
2022/11/03 06:57:39;;;;;;;16.02;7.93;;;;;;;4.05;100.00;100279.97;10540750;28;20040;-69
2022/11/03 07:03:09;;;;;;;8.60;7.60;;;;;;;4.27;100.00;100270.41;10540003;28;20032;-70
2022/11/03 07:08:23;;;;;;;8.32;6.70;;;;;;;4.66;100.00;100268.53;10541211;28;20063;-70
2022/11/03 07:13:26;;;;;;;10.10;7.10;;;;;;;4.78;100.00;100252.84;10540560;28;20043;-70
2022/11/03 07:18:37;;;;;;;12.98;8.23;;;;;;;5.09;100.00;100250.97;10539549;28;20546;-70
2022/11/03 07:23:39;;;;;;;10.05;6.80;;;;;;;5.39;100.00;100244.66;10539561;28;20036;-69
2022/11/03 07:28:47;;;;;;;12.45;7.38;;;;;;;5.69;100.00;100235.72;10540935;28;20040;-70
2022/11/03 07:33:54;;;;;;;16.92;8.20;;;;;;;5.90;100.00;100232.06;10540050;28;20441;-69
2022/11/03 07:39:00;;;;;;;13.00;7.38;;;;;;;5.98;100.00;100230.28;10540116;28;20094;-70
2022/11/03 07:44:02;;;;;;;12.95;6.93;;;;;;;6.02;100.00;100224.16;10545743;28;20036;-69
2022/11/03 07:49:07;;;;;;;14.52;7.38;;;;;;;6.35;100.00;100224.66;10550322;28;20055;-70
2022/11/03 07:54:19;;;;;;;10.73;6.88;;;;;;;6.51;100.00;100207.94;10547649;28;20119;-69
2022/11/03 07:59:25;;;;;;;8.23;6.15;;;;;;;6.71;99.79;100214.66;10547698;28;20044;-69
2022/11/03 08:04:30;;;;;;;14.68;7.88;;;;;;;6.66;100.00;100206.88;10547310;28;20040;-71
2022/11/03 08:09:31;;;;;;;9.25;6.43;;;;;;;7.02;98.54;100205.50;10546120;28;20048;-70
2022/11/03 08:14:34;;;;;;;9.23;6.43;;;;;;;7.13;97.48;100184.44;10546604;28;20074;-70
2022/11/03 08:19:35;;;;;;;9.90;5.75;;;;;;;7.31;97.87;100185.91;10546645;28;20051;-70
2022/11/03 08:24:37;;;;;;;9.63;6.18;;;;;;;7.42;96.32;100173.50;10545337;28;20036;-70
2022/11/03 08:29:38;;;;;;;12.07;6.95;;;;;;;7.57;95.42;100170.66;10546230;28;20075;-71
2022/11/03 08:34:40;;;;;;;11.02;6.30;;;;;;;7.57;95.78;100156.72;10546502;28;20229;-70
2022/11/03 08:39:41;;;;;;;8.48;5.93;;;;;;;7.77;95.04;100167.66;10544485;28;20040;-71
2022/11/03 08:44:43;;;;;;;11.68;6.55;;;;;;;8.01;94.27;100149.75;10544252;28;20083;-70
2022/11/03 08:49:45;;;;;;;8.30;6.05;;;;;;;8.21;92.31;100146.75;10545414;28;20051;-70
2022/11/03 08:54:46;;;;;;;7.72;5.07;;;;;;;8.16;92.72;100141.63;10545374;28;20089;-71
2022/11/03 08:59:48;;;;;;;10.07;5.20;;;;;;;8.44;91.28;100136.69;10544897;28;20127;-69
2022/11/03 09:04:49;;;;;;;8.02;5.05;;;;;;;8.75;87.64;100131.63;10544872;28;20068;-70
2022/11/03 09:09:51;;;;;;;12.02;5.10;;;;;;;8.96;86.39;100117.19;10544557;28;20083;-70
2022/11/03 09:15:12;;;;;;;7.22;4.65;;;;;;;8.83;87.34;100108.75;10544454;28;20072;-69
2022/11/03 09:20:14;;;;;;;9.55;3.85;;;;;;;9.46;83.84;100107.19;10544893;28;20036;-69
2022/11/03 09:25:16;;;;;;;8.00;4.13;;;;;;;9.68;82.93;100093.50;10543024;28;20048;-68
2022/11/03 09:30:17;;;;;;;7.88;3.90;;;;;;;9.70;83.41;100086.47;10518298;28;20045;-68
2022/11/03 09:35:19;;;;;;;9.18;3.63;;;;;;;9.89;81.88;100079.78;10501713;28;20033;-69
2022/11/03 09:40:21;;;;;;;6.68;3.55;;;;;;;10.28;79.14;100066.44;10539069;28;20048;-69
2022/11/03 09:45:22;;;;;;;5.43;2.85;;;;;;;10.49;77.37;100067.53;10534754;28;20064;-69
2022/11/03 09:50:24;;;;;;;5.55;2.70;;;;;;;10.50;77.40;100067.50;10501028;28;20097;-69
2022/11/03 09:55:26;;;;;;;6.93;2.85;;;;;;;10.76;75.25;100055.31;10500852;28;20045;-69
2022/11/03 10:00:28;;;;;;;7.53;3.03;;;;;;;10.77;76.21;100051.75;10501896;28;20116;-70
2022/11/03 10:05:30;;;;;;;4.43;2.25;;;;;;;11.03;73.62;100038.63;10516161;28;20527;-70
2022/11/03 10:10:33;;;;;;;6.20;2.72;;;;;;;11.08;72.87;100020.03;10531664;28;20037;-70
2022/11/03 10:15:35;;;;;;;4.32;1.95;;;;;;;11.39;71.40;100001.41;10500038;28;20473;-70
2022/11/03 10:20:36;;;;;;;5.35;2.00;;;;;;;11.72;70.07;99993.19;10522447;28;20402;-69
2022/11/03 10:25:40;;;;;;;4.95;2.17;;;;;;;12.71;64.44;99978.81;10541604;28;20040;-70
2022/11/03 10:30:50;;;;;;;4.78;1.85;;;;;;;13.31;61.53;99963.06;10541811;28;20047;-70
2022/11/03 10:36:14;;;;;;;6.15;1.85;;;;;;;13.67;60.16;99954.41;10532329;28;20032;-70
2022/11/03 10:41:16;;;;;;;5.72;1.83;;;;;;;13.43;61.61;99954.63;10540771;28;20119;-70
2022/11/03 10:46:21;;;;;;;3.40;0.82;;;;;;;13.89;56.13;99944.56;10541087;28;20089;-69
2022/11/03 10:51:46;;;;;;;2.63;1.10;;;;;;;14.21;56.02;99928.97;10533432;28;20044;-69
2022/11/03 10:56:49;;;;;;;3.88;1.02;;;;;;;14.56;52.74;99914.03;10499878;28;20041;-69
2022/11/03 11:01:51;;;;;;;3.63;0.90;;;;;;;15.12;50.64;99902.34;10508196;28;20048;-69
2022/11/03 11:06:54;;;;;;;3.28;1.10;;;;;;;15.20;51.40;99902.81;10518055;28;20052;-69
2022/11/03 11:12:15;;;;;;;4.65;1.38;;;;;;;15.81;50.86;99888.06;10530451;28;20414;-69
2022/11/03 11:17:46;;;;;;;4.05;1.58;;;;;;;16.45;50.31;99870.28;10512491;28;20105;-69
2022/11/03 11:22:49;;;;;;;4.45;1.38;;;;;;;15.75;49.97;99865.41;10510775;28;20067;-69
2022/11/03 11:27:54;;;;;;;4.75;1.50;;;;;;;15.45;50.78;99862.63;10456994;22;20111;-71
2022/11/03 11:33:23;;;;;;;6.50;1.38;;;;;;;15.04;50.44;99847.16;10420719;28;20106;-72
2022/11/03 11:38:47;;;;;;;4.80;1.30;;;;;;;14.96;52.04;99838.75;10434208;28;20049;-72
2022/11/03 11:43:49;;;;;;;2.83;1.10;;;;;;;14.81;51.42;99834.28;10416324;28;20065;-72
2022/11/03 11:48:56;;;;;;;7.15;1.13;;;;;;;14.64;53.28;99822.78;10415178;28;20379;-72
2022/11/03 11:53:58;;;;;;;3.35;1.20;;;;;;;14.74;52.20;99812.59;10414808;28;20038;-71
2022/11/03 11:59:22;;;;;;;2.72;1.30;;;;;;;14.64;54.12;99796.31;10416051;28;20044;-71
2022/11/03 12:04:29;;;;;;;5.15;1.42;;;;;;;14.29;54.24;99792.81;10415950;28;20041;-72
2022/11/03 12:09:32;;;;;;;4.43;1.70;;;;;;;14.11;54.93;99791.97;10416103;28;20041;-72
2022/11/03 12:14:35;;;;;;;3.33;1.45;;;;;;;13.97;56.56;99775.94;10415134;28;20510;-72
2022/11/03 12:19:40;;;;;;;2.95;1.52;;;;;;;13.91;56.75;99765.69;10415831;28;20042;-73
2022/11/03 12:24:51;;;;;;;6.55;2.03;;;;;;;13.93;56.76;99750.59;10416112;28;20053;-73
2022/11/03 12:29:58;;;;;;;7.85;2.00;;;;;;;13.88;57.44;99753.47;10417819;28;20052;-70
2022/11/03 12:35:00;;;;;;;3.35;1.55;;;;;;;13.87;57.24;99743.00;10424009;28;20471;-73
2022/11/03 12:40:03;;;;;;;4.55;1.70;;;;;;;13.86;57.87;99733.38;10421176;28;20465;-72
2022/11/03 12:45:06;;;;;;;4.18;1.60;;;;;;;13.71;58.24;99731.47;10420939;28;20496;-71
2022/11/03 12:50:08;;;;;;;4.30;1.55;;;;;;;13.77;58.08;99717.97;10421513;28;20049;-73
2022/11/03 12:55:10;;;;;;;5.03;1.60;;;;;;;13.69;58.67;99717.50;10423622;28;20052;-72
2022/11/03 13:00:13;;;;;;;9.65;1.80;;;;;;;13.60;58.99;99713.53;10423919;28;20095;-72
2022/11/03 13:05:15;;;;;;;6.60;1.98;;;;;;;13.38;59.40;99690.81;10422592;28;20091;-71
2022/11/03 13:10:16;;;;;;;4.35;1.85;;;;;;;13.38;58.81;99689.97;10422276;28;20041;-72
2022/11/03 13:15:18;;;;;;;5.88;2.13;;;;;;;13.49;59.15;99687.63;10422130;28;20041;-73
2022/11/03 13:20:19;;;;;;;4.63;1.73;;;;;;;13.37;59.86;99680.34;10422150;28;20394;-72
2022/11/03 13:25:23;;;;;;;4.95;1.60;;;;;;;13.34;59.15;99662.00;10423281;28;20120;-72
2022/11/03 13:30:26;;;;;;;4.65;2.38;;;;;;;13.19;59.84;99644.22;10421731;28;20103;-72
2022/11/03 13:35:27;;;;;;;6.55;2.88;;;;;;;13.28;60.29;99626.22;10421068;28;20140;-72
2022/11/03 13:40:29;;;;;;;5.00;3.05;;;;;;;13.24;60.77;99618.50;10418522;28;20049;-72
2022/11/03 13:45:51;;;;;;;5.50;3.05;;;;;;;12.84;62.79;99612.50;10420289;28;20038;-72
2022/11/03 13:50:54;;;;;;;6.63;3.90;;;;;;;12.90;63.37;99600.78;10420308;28;20490;-72
2022/11/03 13:55:56;;;;;;;9.13;3.35;;;;;;;12.79;63.85;99590.72;10421089;28;20038;-72
2022/11/03 14:01:08;;;;;;;6.10;2.70;;;;;;;12.74;64.11;99580.41;10418947;28;20041;-72
2022/11/03 14:06:09;;;;;;;7.38;2.58;;;;;;;12.63;64.20;99586.22;10418880;28;20060;-72
2022/11/03 14:16:31;;;;;;;4.45;2.40;;;;;;;12.55;65.23;99572.53;10419480;28;20414;-72
2022/11/03 14:21:36;;;;;;;6.47;2.75;;;;;;;12.47;65.94;99553.56;10418518;28;20084;-73
2022/11/03 14:26:37;;;;;;;4.25;2.70;;;;;;;12.34;66.64;99563.84;10418607;28;20383;-72
2022/11/03 14:31:44;;;;;;;5.30;2.95;;;;;;;12.22;67.27;99553.00;10420498;28;20100;-72
2022/11/03 14:36:45;;;;;;;4.60;2.83;;;;;;;12.05;67.97;99541.47;10423687;28;20038;-72
2022/11/03 14:42:02;;;;;;;7.82;3.65;;;;;;;12.00;68.65;99540.00;10420540;28;20061;-73
2022/11/03 14:47:05;;;;;;;;;;;;;;;11.89;69.59;99539.59;10422915;28;20049;-72
2022/11/03 14:52:07;;;;;;;4.63;2.92;;;;;;;11.80;70.46;99525.88;10418508;28;19921;-72
2022/11/03 14:57:09;;;;;;;8.23;3.60;;;;;;;11.82;70.65;99520.53;10421148;28;20559;-72
2022/11/03 15:02:10;;;;;;;5.07;3.83;;;;;;;11.85;70.37;99525.72;10419719;28;20495;-73
2022/11/03 15:07:12;;;;;;;7.53;4.50;;;;;;;11.67;71.68;99497.53;10419730;28;20041;-72
2022/11/03 15:12:14;;;;;;;7.25;3.97;;;;;;;11.68;72.34;99476.41;10417363;28;20046;-72
2022/11/03 15:17:16;;;;;;;7.60;4.78;;;;;;;11.54;73.84;99463.00;10417960;28;20042;-72
2022/11/03 15:22:17;;;;;;;8.38;5.32;;;;;;;11.48;74.67;99456.25;10416660;28;20392;-72
2022/11/03 15:27:19;;;;;;;6.88;5.07;;;;;;;11.60;74.34;99454.84;10416653;28;20057;-73
2022/11/03 15:32:21;;;;;;;7.40;5.07;;;;;;;11.52;75.17;99442.03;10415476;28;20049;-72
2022/11/03 15:37:23;;;;;;;8.80;5.60;;;;;;;11.49;75.42;99442.16;10415230;28;20103;-72
2022/11/03 15:42:25;;;;;;;9.95;6.03;;;;;;;11.43;75.74;99434.56;10415877;28;20045;-72
2022/11/03 15:47:27;;;;;;;12.35;6.05;;;;;;;11.38;76.55;99426.03;10417805;28;20438;-72
2022/11/03 15:52:28;;;;;;;8.05;6.43;;;;;;;11.20;77.78;99425.06;10416396;28;20049;-72
2022/11/03 15:57:30;;;;;;;10.27;6.88;;;;;;;11.13;78.46;99420.97;10415567;28;20499;-72
2022/11/03 16:02:32;;;;;;;11.40;6.20;;;;;;;11.17;78.34;99403.28;10416608;28;20073;-73
2022/11/03 16:07:42;;;;;;;8.43;7.45;;;;;;;11.01;78.65;99393.41;10424412;28;20041;-73
2022/11/03 16:12:44;;;;;;;9.77;6.90;;;;;;;10.92;79.97;99392.97;10424797;28;20049;-72
2022/11/03 16:17:46;;;;;;;13.90;6.95;;;;;;;10.94;80.13;99389.38;10423793;28;20037;-72
2022/11/03 16:22:48;;;;;;;16.30;7.72;;;;;;;10.78;81.52;99372.53;10424611;28;20049;-73
2022/11/03 16:27:49;;;;;;;8.88;7.43;;;;;;;10.56;83.27;99376.06;10421828;28;20042;-72
2022/11/03 16:32:52;;;;;;;11.52;7.93;;;;;;;10.75;82.71;99370.03;10423110;28;20103;-72
2022/11/03 16:37:54;;;;;;;10.70;8.48;;;;;;;10.71;83.00;99361.41;10423090;28;20387;-72
2022/11/03 16:42:55;;;;;;;10.25;7.03;;;;;;;10.58;84.00;99361.13;10422921;28;20056;-74
2022/11/03 16:47:57;;;;;;;11.30;7.90;;;;;;;10.66;83.47;99352.03;10422511;28;20046;-72
2022/11/03 16:52:59;;;;;;;8.18;7.38;;;;;;;10.71;83.89;99343.03;10422922;28;20057;-73
2022/11/03 16:58:00;;;;;;;12.30;7.60;;;;;;;10.79;84.18;99343.53;10421986;28;20495;-72
2022/11/03 17:03:02;;;;;;;10.27;7.05;;;;;;;10.79;83.82;99335.66;10421557;28;20057;-71
2022/11/03 17:08:05;;;;;;;7.25;6.55;;;;;;;10.58;85.86;99318.19;10423656;28;20049;-72
2022/11/03 17:13:16;;;;;;;8.30;6.88;;;;;;;10.81;84.55;99307.53;10421584;28;20101;-73
2022/11/03 17:18:18;;;;;;;8.32;6.57;;;;;;;10.84;84.55;99288.97;10422129;28;20045;-72
2022/11/03 17:23:19;;;;;;;9.13;6.57;;;;;;;10.92;84.59;99270.25;10429526;28;20049;-72
2022/11/03 17:34:31;;;;;;;9.93;7.65;;;;;;;10.90;85.42;99258.97;10411379;28;20197;-85
2022/11/03 17:40:45;;;;;;;8.20;6.78;;;;;;;11.00;84.63;99243.59;10408258;28;20046;-85
2022/11/03 17:45:50;;;;;;;9.77;7.22;;;;;;;11.04;84.64;99240.75;10402962;28;20034;-84
2022/11/03 17:50:57;;;;;;;7.93;6.75;;;;;;;10.95;85.61;99229.81;10399008;28;20186;-84
2022/11/03 17:56:17;;;;;;;7.35;6.65;;;;;;;10.78;85.91;99225.31;10448573;22;20124;-72
2022/11/03 18:01:34;;;;;;;8.48;7.60;;;;;;;10.68;88.00;99213.53;10462005;28;20466;-72
2022/11/03 18:06:37;;;;;;;9.10;8.15;;;;;;;10.76;87.11;99204.38;10462194;28;20048;-72
2022/11/03 18:17:00;;;;;;;10.13;7.68;;;;;;;10.19;90.58;99190.25;10461173;28;20045;-72
2022/11/03 18:22:13;;;;;;;8.82;7.93;;;;;;;10.14;92.43;99178.22;10465916;28;20132;-74
2022/11/03 18:28:00;;;;;;;9.90;8.63;;;;;;;10.15;93.59;99165.03;10469567;28;20037;-73
2022/11/03 18:33:29;;;;;;;12.45;9.90;;;;;;;10.21;94.51;99161.28;10463130;28;20505;-72
2022/11/03 18:38:35;;;;;;;9.65;8.75;;;;;;;10.22;94.85;99150.72;10463456;28;20472;-72
2022/11/03 18:43:41;;;;;;;14.82;8.52;;;;;;;10.33;93.51;99127.50;10461662;28;20053;-72
2022/11/03 18:48:43;;;;;;;9.98;8.88;;;;;;;10.68;93.10;99127.66;10470617;28;20083;-72
2022/11/03 18:53:45;;;;;;;18.42;8.65;;;;;;;10.77;92.10;99121.09;10507462;28;20075;-71
2022/11/03 18:58:49;;;;;;;10.10;8.40;;;;;;;10.49;94.10;99116.25;10465043;28;20544;-73
2022/11/03 19:03:51;;;;;;;10.35;8.55;;;;;;;10.75;93.29;99105.38;10463074;28;20045;-72
2022/11/03 19:08:58;;;;;;;11.13;9.68;;;;;;;10.89;92.83;99102.13;10460916;28;20465;-72
2022/11/03 19:14:00;;;;;;;11.85;9.50;;;;;;;10.84;93.36;99090.97;10461251;28;20129;-72
2022/11/03 19:19:01;;;;;;;11.20;10.00;;;;;;;11.05;92.63;99089.06;10462520;28;20045;-71
2022/11/03 19:24:03;;;;;;;10.20;9.20;;;;;;;11.09;92.51;99075.69;10461590;28;20045;-72
2022/11/03 19:29:10;;;;;;;12.02;10.45;;;;;;;11.27;90.36;99068.69;10460977;28;20048;-72
2022/11/03 19:34:19;;;;;;;9.90;9.00;;;;;;;11.17;92.09;99061.34;10458347;28;20041;-72
2022/11/03 19:39:27;;;;;;;11.23;9.63;;;;;;;11.04;92.23;99047.94;10460686;28;20045;-72
2022/11/03 19:44:28;;;;;;;12.15;11.05;;;;;;;11.08;92.95;99049.50;10442191;28;20044;-72
2022/11/03 19:49:30;;;;;;;10.45;9.55;;;;;;;11.15;91.65;99039.50;10460605;28;20069;-73
2022/11/03 19:54:32;;;;;;;10.70;9.63;;;;;;;11.05;91.95;99032.06;10458171;28;20456;-72
2022/11/03 19:59:34;;;;;;;12.77;9.60;;;;;;;10.92;92.47;99014.34;10460437;28;20041;-72
2022/11/03 20:04:36;;;;;;;12.70;11.50;;;;;;;10.89;92.72;98998.72;10458517;28;20041;-71
2022/11/03 20:09:37;;;;;;;16.52;12.35;;;;;;;10.76;93.85;98993.25;10461161;28;20052;-72
2022/11/03 20:14:39;;;;;;;13.93;12.57;;;;;;;10.74;93.81;98989.81;10459731;28;20459;-72
2022/11/03 20:19:40;;;;;;;16.40;14.68;;;;;;;10.79;94.51;98993.06;10445630;28;20049;-72
2022/11/03 20:24:44;;;;;;;16.48;15.13;;;;;;;10.79;94.77;98995.69;10459345;28;20070;-72
2022/11/03 20:29:47;;;;;;;15.13;13.70;;;;;;;10.93;93.98;98992.38;10459000;28;20168;-71
2022/11/03 20:34:49;;;;;;;14.73;13.32;;;;;;;11.02;93.82;98978.78;10459984;28;20041;-72
2022/11/03 20:39:51;;;;;;;14.85;13.50;;;;;;;11.00;92.87;98984.13;10459269;28;20064;-71
2022/11/03 20:44:53;;;;;;;14.65;13.35;;;;;;;11.07;92.43;98985.53;10460741;28;20033;-71
2022/11/03 20:49:55;;;;;;;14.18;12.90;;;;;;;11.13;92.20;98973.84;10463104;28;20056;-72
2022/11/03 20:54:56;;;;;;;13.93;12.70;;;;;;;11.03;92.01;98962.09;10467185;28;20494;-72
2022/11/03 20:59:58;;;;;;;16.63;13.38;;;;;;;10.84;93.63;98964.78;10466019;28;20052;-71
2022/11/03 21:04:59;;;;;;;14.25;12.85;;;;;;;10.97;92.66;98955.34;10467722;28;20049;-72
2022/11/03 21:10:01;;;;;;;13.35;12.27;;;;;;;10.97;92.78;98957.13;10467477;28;20041;-72
2022/11/03 21:20:33;;;;;;;14.15;12.77;;;;;;;11.02;91.66;98955.97;10466219;28;20060;-73
2022/11/03 21:25:34;;;;;;;13.93;12.82;;;;;;;11.07;92.42;98953.13;10467582;28;20037;-72
2022/11/03 21:30:36;;;;;;;18.92;13.50;;;;;;;11.06;92.02;98941.72;10448027;28;20102;-73
2022/11/03 21:35:40;;;;;;;14.75;13.30;;;;;;;10.93;92.77;98945.91;10464310;28;20037;-71
2022/11/03 21:40:47;;;;;;;15.70;14.23;;;;;;;10.97;93.42;98949.22;10463332;28;20376;-72
2022/11/03 21:46:21;;;;;;;13.88;12.57;;;;;;;11.14;91.37;98945.75;10464937;28;20044;-72
2022/11/03 21:51:23;;;;;;;13.20;12.10;;;;;;;11.23;91.37;98932.13;10465663;28;20053;-72
2022/11/03 21:56:25;;;;;;;14.00;12.90;;;;;;;11.24;90.97;98929.41;10463795;28;20096;-71
2022/11/03 22:01:27;;;;;;;14.20;12.57;;;;;;;11.24;91.14;98921.50;10462487;28;20037;-72
2022/11/03 22:06:28;;;;;;;14.85;13.55;;;;;;;11.21;90.75;98921.69;10447107;28;20055;-72
2022/11/03 22:11:30;;;;;;;14.63;13.30;;;;;;;11.27;90.19;98910.84;10463807;28;20490;-71
2022/11/03 22:16:41;;;;;;;13.90;12.80;;;;;;;11.17;91.41;98906.16;10463037;28;20041;-72
2022/11/03 22:27:03;;;;;;;13.88;12.60;;;;;;;11.21;90.30;98894.53;10462022;28;20491;-71
2022/11/03 22:32:14;;;;;;;18.35;13.32;;;;;;;11.09;91.06;98885.50;10461234;28;20045;-67
2022/11/03 22:37:16;;;;;;;13.77;12.63;;;;;;;11.29;89.77;98876.56;10458711;28;20057;-68
2022/11/03 22:47:37;;;;;;;13.82;11.90;;;;;;;11.21;89.79;98865.59;10458178;28;20033;-68
2022/11/03 22:52:39;;;;;;;14.80;12.07;;;;;;;11.08;90.64;98860.13;10458455;28;20056;-69
2022/11/03 22:57:42;;;;;;;12.77;11.68;;;;;;;10.96;91.44;98859.00;10457174;28;20045;-68
2022/11/03 23:02:43;;;;;;;12.82;11.80;;;;;;;10.84;92.65;98847.31;10456554;28;20106;-69
2022/11/03 23:07:45;;;;;;;12.93;11.60;;;;;;;10.75;92.75;98834.66;10457497;28;20462;-70
2022/11/03 23:12:46;;;;;;;11.55;10.40;;;;;;;11.06;91.76;98836.53;10455204;28;20106;-68
2022/11/03 23:24:57;;;;;;;10.85;9.75;;;;;;;10.92;92.37;98832.94;10457865;28;20053;-69
2022/11/03 23:28:29;;;;;;;11.70;10.60;;;;;;;10.94;91.88;98818.78;10456363;28;20120;-69
2022/11/03 23:33:31;;;;;;;12.27;10.10;;;;;;;11.08;90.52;98813.66;10456995;28;20110;-69
2022/11/03 23:38:34;;;;;;;11.63;10.45;;;;;;;11.09;90.92;98809.22;10457010;28;20063;-69
2022/11/03 23:43:36;;;;;;;12.20;10.18;;;;;;;11.03;91.23;98802.53;10455977;28;20072;-69
2022/11/03 23:48:46;;;;;;;10.35;9.45;;;;;;;11.14;90.79;98796.69;10456353;28;20058;-69
2022/11/03 23:53:49;;;;;;;10.65;9.55;;;;;;;10.95;91.92;98786.31;10456713;28;20068;-69
2022/11/03 23:58:51;;;;;;;10.82;8.55;;;;;;;10.86;91.52;98790.28;10456754;28;20548;-69
